TimeGMT,TemperatureF,Dew PointF,Humidity,Sea Level PressureIn,VisibilityMPH,Wind Direction,Wind SpeedMPH,Gust SpeedMPH,PrecipitationIn,Events,Conditions,WindDirDegrees,DateUTC
12:00 AM,44,37,68,29.55,19,ENE,15.7,,,,Partly Cloudy,70,2012-11-05 00:00:00
12:00 AM,44.6,37.4,76,29.53,6.2,ENE,16.1,-,N/A,,Scattered Clouds,70,2012-11-05 00:00:00
12:30 AM,42.8,37.4,81,29.56,6.2,ENE,13.8,-,N/A,,Scattered Clouds,70,2012-11-05 00:30:00
1:00 AM,42.8,35.6,76,29.56,6.2,ENE,10.4,-,N/A,,Scattered Clouds,60,2012-11-05 01:00:00
1:30 AM,41.0,35.6,81,29.59,6.2,ENE,10.4,-,N/A,,Partly Cloudy,60,2012-11-05 01:30:00
2:00 AM,41.0,35.6,81,29.59,6.2,NE,9.2,-,N/A,,Partly Cloudy,50,2012-11-05 02:00:00
2:30 AM,39.2,35.6,87,29.62,6.2,NE,6.9,-,N/A,,Partly Cloudy,40,2012-11-05 02:30:00
3:00 AM,39.2,35.6,87,29.62,6.2,NNE,8.1,-,N/A,,Partly Cloudy,30,2012-11-05 03:00:00
3:30 AM,39.2,33.8,81,29.65,6.2,NNE,9.2,-,N/A,,Partly Cloudy,30,2012-11-05 03:30:00
4:00 AM,39.2,37.4,93,29.65,6.2,NNW,9.2,-,N/A,,Partly Cloudy,340,2012-11-05 04:00:00
4:30 AM,39.2,37.4,93,29.68,6.2,NNW,9.2,-,N/A,,Partly Cloudy,340,2012-11-05 04:30:00
5:00 AM,39.2,37.4,93,29.68,6.2,NNW,10.4,-,N/A,,Partly Cloudy,340,2012-11-05 05:00:00
5:30 AM,37.4,33.8,87,29.71,6.2,NNW,10.4,-,N/A,,Partly Cloudy,340,2012-11-05 05:30:00
6:00 AM,34,32,91,29.76,19,NNW,8.9,,,,Scattered Clouds,330,2012-11-05 06:00:00
6:00 AM,33.8,32.0,93,29.74,6.2,NNW,9.2,-,N/A,,Partly Cloudy,330,2012-11-05 06:00:00
6:30 AM,33.8,33.8,100,29.74,6.2,NNW,10.4,-,N/A,,Partly Cloudy,340,2012-11-05 06:30:00
7:00 AM,33.8,32.0,93,29.74,6.2,NW,8.1,-,N/A,,Partly Cloudy,310,2012-11-05 07:00:00
7:30 AM,33.8,32.0,93,29.77,6.2,NW,9.2,-,N/A,,Partly Cloudy,310,2012-11-05 07:30:00
8:00 AM,33.8,32.0,93,29.80,6.2,WNW,11.5,-,N/A,,Partly Cloudy,300,2012-11-05 08:00:00
8:30 AM,35.6,33.8,93,29.80,6.2,WNW,10.4,-,N/A,,Partly Cloudy,300,2012-11-05 08:30:00
9:00 AM,37.4,35.6,93,29.83,6.2,NW,11.5,-,N/A,,Partly Cloudy,310,2012-11-05 09:00:00
9:30 AM,39.2,37.4,93,29.83,6.2,NW,10.4,-,N/A,,Partly Cloudy,310,2012-11-05 09:30:00
10:00 AM,41.0,37.4,87,29.83,6.2,WNW,11.5,-,N/A,,Partly Cloudy,300,2012-11-05 10:00:00
10:30 AM,41.0,37.4,87,29.86,6.2,WNW,10.4,-,N/A,,Partly Cloudy,290,2012-11-05 10:30:00
11:00 AM,42.8,39.2,87,29.86,6.2,West,9.2,-,N/A,,Partly Cloudy,280,2012-11-05 11:00:00
11:30 AM,44.6,39.2,81,29.86,6.2,West,11.5,-,N/A,,Partly Cloudy,280,2012-11-05 11:30:00
12:00 PM,46,40,74,29.89,25,WNW,13.4,,,,Scattered Clouds,290,2012-11-05 12:00:00
12:00 PM,46.4,41.0,81,29.86,6.2,WNW,13.8,-,N/A,,Partly Cloudy,290,2012-11-05 12:00:00
12:30 PM,46.4,41.0,81,29.89,6.2,WNW,12.7,-,N/A,,Scattered Clouds,290,2012-11-05 12:30:00
1:00 PM,46.4,41.0,81,29.89,6.2,WNW,13.8,-,N/A,,Scattered Clouds,300,2012-11-05 13:00:00
1:30 PM,46.4,41.0,81,29.89,6.2,WNW,11.5,-,N/A,,Scattered Clouds,300,2012-11-05 13:30:00
2:00 PM,46.4,41.0,81,29.89,6.2,WNW,13.8,-,N/A,,Partly Cloudy,300,2012-11-05 14:00:00
2:30 PM,46.4,39.2,76,29.89,6.2,NW,12.7,-,N/A,,Partly Cloudy,310,2012-11-05 14:30:00
3:00 PM,48.2,41.0,76,29.92,6.2,NW,11.5,-,N/A,,Partly Cloudy,320,2012-11-05 15:00:00
3:30 PM,46.4,39.2,76,29.92,6.2,NW,13.8,-,N/A,,Partly Cloudy,310,2012-11-05 15:30:00
4:00 PM,46.4,39.2,76,29.92,6.2,NW,10.4,-,N/A,,Partly Cloudy,310,2012-11-05 16:00:00
4:30 PM,44.6,39.2,81,29.95,6.2,WNW,9.2,-,N/A,,Scattered Clouds,300,2012-11-05 16:30:00
5:00 PM,42.8,37.4,81,29.95,6.2,WNW,11.5,-,N/A,,Partly Cloudy,300,2012-11-05 17:00:00
5:30 PM,41.0,37.4,87,29.98,6.2,WNW,10.4,-,N/A,,Partly Cloudy,290,2012-11-05 17:30:00
6:00 PM,40,37,84,30.01,31,West,8.9,,,,Scattered Clouds,270,2012-11-05 18:00:00
6:00 PM,41.0,37.4,87,29.98,6.2,West,9.2,-,N/A,,Partly Cloudy,270,2012-11-05 18:00:00
6:30 PM,39.2,37.4,93,30.01,6.2,WNW,9.2,-,N/A,,Scattered Clouds,290,2012-11-05 18:30:00
7:00 PM,41.0,37.4,87,30.01,6.2,WNW,10.4,-,N/A,,Partly Cloudy,300,2012-11-05 19:00:00
7:30 PM,39.2,37.4,93,30.04,6.2,WNW,11.5,-,N/A,,Partly Cloudy,300,2012-11-05 19:30:00
8:00 PM,39.2,37.4,93,30.04,6.2,WNW,11.5,-,N/A,,Partly Cloudy,300,2012-11-05 20:00:00
8:30 PM,39.2,35.6,87,30.06,6.2,WNW,11.5,-,N/A,,Partly Cloudy,290,2012-11-05 20:30:00
9:00 PM,37.4,35.6,93,30.06,6.2,WNW,9.2,-,N/A,,Partly Cloudy,290,2012-11-05 21:00:00
9:30 PM,37.4,35.6,93,30.06,6.2,WNW,10.4,-,N/A,,Partly Cloudy,290,2012-11-05 21:30:00
10:00 PM,37.4,35.6,93,30.09,6.2,West,13.8,-,N/A,,Partly Cloudy,280,2012-11-05 22:00:00
10:30 PM,37.4,35.6,93,30.09,6.2,West,12.7,-,N/A,,Partly Cloudy,280,2012-11-05 22:30:00
11:00 PM,37.4,35.6,93,30.09,6.2,West,11.5,-,N/A,,Partly Cloudy,270,2012-11-05 23:00:00
11:30 PM,37.4,35.6,93,30.09,6.2,West,11.5,-,N/A,,Partly Cloudy,270,2012-11-05 23:30:00